Bremgarten, Germany

10:49 AM CEST on September 22, 2014 (GMT +0200)
Black Forrest Bad Krozingen Southbaden | Change Station
CLOSE
Current Station
Personal Weather Station
Location: Bad Krozingen, BADEN-WüRTTEMBERG
Elevation: 758 ft
Nearby Weather Stations

Elev 758 ft 47.92 °N, 7.71 °E | Updated 8 seconds ago

Partly Cloudy
Partly Cloudy
57.7 °F
Feels Like 57.7 °F
N
1.1
Wind Variable Wind from West
Gusts 2.5 mph

Today
High -- | Low -- °F
--% Chance of Precip.
Yesterday
High -- | Low -- °F
Precip. -- in
7:15 AM 7:27 PM
Waning Crescent, 3% visible
Pressure 30.15 in
Visibility 6.2 miles
Clouds Few 1300 ft
Dew Point 48 °F
Humidity 71%
Rainfall 0.01 in
Snow Depth Not available.
UV 1.0 out of 12
Pollen Not available.
Air Quality Not available.
Flu Activity Not available.
METAR LFSB 220830Z 36006KT 320V060 9999 FEW013 14/10 Q1021 NOSIG

More Conditions Fewer Conditions

Pressure 30.15 in
Visibility 6.2 miles
Clouds Few 1300 ft
Dew Point 48 °F
Humidity 71%
Rainfall 0.01 in
Snow Depth Not available.
UV 1.0 out of 12
Pollen Not available.
Air Quality Not available.
Flu Activity Not available.
METAR LFSB 220830Z 36006KT 320V060 9999 FEW013 14/10 Q1021 NOSIG

More Conditions Fewer Conditions

10-Day Weather Forecast

Almanac

Astronomy

Sep. 22, 2014 Rise Set
Actual Time 7:15 AM CEST 7:27 PM CEST
Civil Twilight 6:44 AM CEST 7:58 PM CEST
Nautical Twilight 6:08 AM CEST 8:35 PM CEST
Astronomical Twilight 5:30 AM CEST 9:12 PM CEST
Moon 5:23 AM CEST 6:30 PM CEST
Length of Visible Light 13h 13m
Length of Day
12h 11m
Tomorrow will be 3m 26s shorter.
Waning Crescent, 3% of the Moon is Illuminated
Today
Waning Crescent
Sep 24
New
Oct 1
First Quarter
Oct 8
Full
Oct 15
Last Quarter

Yesterday's Extremes

Country Highs Country Lows

Community

WunderPhotos

Upload Photos

1,755,402 photos uploaded!

Nearby

Snow Depth

Not available.

Earthquake Activity

City Distance Mag. Time & Date
No recent earthquake activity has been reported nearby.
Minimum magnitude displayed is 2.5.

Coastal Water Temperatures

Place Temperature
No Stations Reporting

Nearby Weather Stations